createdAt,value
2023-01-18T00:01:02.180Z,25.37
2023-01-18T00:04:04.807Z,21.33
2023-01-18T00:07:07.385Z,21.93
2023-01-18T00:10:10.985Z,27.03
2023-01-18T00:13:15.007Z,25.87
2023-01-18T00:16:19.284Z,19.73
2023-01-18T00:19:21.919Z,21.77
2023-01-18T00:22:24.495Z,28.13
2023-01-18T00:25:27.252Z,24.53
2023-01-18T00:28:31.333Z,25.43
2023-01-18T00:31:33.968Z,24.77
2023-01-18T00:34:37.227Z,21.80
2023-01-18T00:37:40.373Z,19.63
2023-01-18T00:40:42.943Z,22.50
2023-01-18T00:43:46.319Z,27.67
2023-01-18T00:46:49.922Z,21.30
2023-01-18T00:49:52.506Z,23.03
2023-01-18T00:52:57.844Z,24.03
2023-01-18T00:56:00.782Z,24.23
2023-01-18T00:59:04.725Z,18.97
2023-01-18T01:02:07.493Z,20.37
2023-01-18T01:05:35.648Z,24.40
2023-01-18T01:08:38.300Z,23.87
2023-01-18T01:12:00.855Z,28.63
2023-01-18T01:15:22.849Z,23.20
2023-01-18T01:18:43.162Z,28.90
2023-01-18T01:22:03.093Z,26.63
2023-01-18T01:25:23.689Z,29.00
2023-01-18T01:28:26.419Z,28.70
2023-01-18T01:31:30.335Z,28.87
2023-01-18T01:34:33.130Z,29.37
2023-01-18T01:37:35.695Z,29.50
2023-01-18T01:40:38.289Z,32.20
2023-01-18T01:43:44.651Z,27.07
2023-01-18T01:46:52.267Z,29.87
2023-01-18T01:49:59.044Z,29.97
2023-01-18T01:53:01.838Z,29.33
2023-01-18T01:56:05.824Z,29.00
2023-01-18T01:59:10.021Z,31.93
2023-01-18T02:02:14.224Z,27.23
2023-01-18T02:05:18.836Z,31.67
2023-01-18T02:08:23.219Z,30.67
2023-01-18T02:11:25.904Z,33.90
2023-01-18T02:14:28.824Z,28.27
2023-01-18T02:17:46.685Z,37.40
2023-01-18T02:21:13.831Z,30.50
2023-01-18T02:24:53.181Z,31.07
2023-01-18T02:28:07.613Z,32.00
2023-01-18T02:31:15.920Z,31.03
2023-01-18T02:34:26.819Z,33.77
2023-01-18T02:37:43.554Z,29.67
2023-01-18T02:41:09.752Z,29.70
2023-01-18T02:44:35.005Z,30.47
2023-01-18T02:47:38.420Z,33.57
2023-01-18T02:50:41.995Z,29.20
2023-01-18T02:53:47.473Z,27.40
2023-01-18T02:56:54.099Z,32.03
2023-01-18T03:00:00.395Z,32.03
2023-01-18T03:03:05.625Z,24.67
2023-01-18T03:06:09.554Z,26.60
2023-01-18T03:09:18.333Z,26.37
2023-01-18T03:12:27.566Z,33.00
2023-01-18T03:15:39.887Z,27.30
2023-01-18T03:19:01.026Z,28.07
2023-01-18T03:22:05.784Z,27.07
2023-01-18T03:25:11.292Z,33.07
2023-01-18T03:28:34.869Z,27.57
2023-01-18T03:32:03.575Z,29.97
2023-01-18T03:35:11.543Z,29.87
2023-01-18T03:38:14.923Z,34.97
2023-01-18T03:41:19.394Z,29.77
2023-01-18T03:44:27.506Z,25.43
2023-01-18T03:47:32.199Z,24.87
2023-01-18T03:50:44.992Z,27.40
2023-01-18T03:53:54.149Z,29.50
2023-01-18T03:57:02.695Z,23.73
2023-01-18T04:00:08.606Z,27.50
2023-01-18T04:03:12.628Z,27.67
2023-01-18T04:06:15.459Z,25.13
2023-01-18T04:09:18.051Z,28.93
2023-01-18T04:12:20.634Z,23.43
2023-01-18T04:15:23.489Z,25.40
2023-01-18T04:18:27.411Z,25.00
2023-01-18T04:21:30.027Z,28.07
2023-01-18T04:24:32.623Z,22.67
2023-01-18T04:27:35.200Z,26.10
2023-01-18T04:30:37.764Z,24.57
2023-01-18T04:33:41.711Z,25.30
2023-01-18T04:36:44.648Z,27.47
2023-01-18T04:39:47.764Z,33.30
2023-01-18T04:42:54.152Z,26.77
2023-01-18T04:45:57.417Z,23.17
2023-01-18T04:49:01.682Z,22.67
2023-01-18T04:52:07.211Z,26.37
2023-01-18T04:55:15.730Z,26.47
2023-01-18T04:58:18.448Z,25.57
2023-01-18T05:01:21.596Z,27.03
2023-01-18T05:04:25.609Z,27.73
2023-01-18T05:07:30.608Z,24.37
2023-01-18T05:10:33.556Z,25.43
2023-01-18T05:13:36.203Z,26.60
2023-01-18T05:16:38.810Z,26.03
2023-01-18T05:19:42.761Z,30.10
2023-01-18T05:22:45.336Z,27.77
2023-01-18T05:25:53.818Z,29.13
2023-01-18T05:28:58.538Z,35.23
2023-01-18T05:32:01.154Z,28.77
2023-01-18T05:35:05.525Z,30.93
2023-01-18T05:38:08.567Z,25.30
2023-01-18T05:41:11.357Z,27.23
2023-01-18T05:44:14.095Z,27.57
2023-01-18T05:47:16.685Z,24.00
2023-01-18T05:50:20.608Z,31.90
2023-01-18T05:53:24.004Z,24.23
2023-01-18T05:56:26.592Z,24.77
2023-01-18T05:59:29.168Z,26.23
2023-01-18T06:02:31.743Z,25.13
2023-01-18T06:05:35.704Z,30.77
2023-01-18T06:08:38.347Z,23.73
2023-01-18T06:11:40.959Z,24.70
2023-01-18T06:14:43.522Z,25.43
2023-01-18T06:17:47.025Z,23.83
2023-01-18T06:20:53.625Z,24.57
2023-01-18T06:23:56.205Z,27.10
2023-01-18T06:26:59.169Z,25.80
2023-01-18T06:30:01.728Z,27.77
2023-01-18T06:33:06.769Z,24.13
2023-01-18T06:36:11.037Z,29.47
2023-01-18T06:39:13.649Z,28.50
2023-01-18T06:42:16.247Z,26.00
2023-01-18T06:45:21.926Z,27.57
2023-01-18T06:48:26.314Z,26.13
2023-01-18T06:51:30.282Z,23.77
2023-01-18T06:54:32.862Z,23.30
2023-01-18T06:57:35.446Z,23.53
2023-01-18T07:00:38.763Z,27.60
2023-01-18T07:03:41.361Z,22.03
2023-01-18T07:06:45.387Z,22.53
2023-01-18T07:09:47.936Z,22.30
2023-01-18T07:12:50.844Z,28.87
2023-01-18T07:15:56.435Z,22.53
2023-01-18T07:19:00.616Z,23.27
2023-01-18T07:22:04.604Z,28.03
2023-01-18T07:25:08.055Z,25.77
2023-01-18T07:28:10.619Z,27.47
2023-01-18T07:31:13.517Z,20.83
2023-01-18T07:34:16.084Z,23.67
2023-01-18T07:37:20.023Z,22.50
2023-01-18T07:40:22.963Z,22.00
2023-01-18T07:43:25.602Z,29.53
2023-01-18T07:46:28.226Z,29.30
2023-01-18T07:49:30.807Z,29.20
2023-01-18T07:52:34.748Z,32.50
2023-01-18T07:55:38.762Z,28.13
2023-01-18T07:58:41.626Z,35.33
2023-01-18T08:01:44.267Z,27.40
2023-01-18T08:04:49.875Z,24.57
2023-01-18T08:07:54.548Z,23.93
2023-01-18T08:10:58.236Z,24.80
2023-01-18T08:14:00.800Z,26.10
2023-01-18T08:17:06.296Z,22.10
2023-01-18T08:20:09.976Z,30.43
2023-01-18T08:23:14.651Z,23.33
2023-01-18T08:26:17.224Z,25.63
2023-01-18T08:29:19.786Z,22.77
2023-01-18T08:32:22.404Z,22.50
2023-01-18T08:35:25.953Z,23.87
2023-01-18T08:38:29.901Z,27.20
2023-01-18T08:41:32.471Z,24.63
2023-01-18T08:44:35.074Z,23.63
2023-01-18T08:47:37.652Z,24.43
2023-01-18T08:50:40.262Z,27.37
2023-01-18T08:53:44.290Z,29.40
2023-01-18T08:56:46.861Z,31.03
2023-01-18T08:59:49.418Z,26.23
2023-01-18T09:02:52.210Z,23.97
2023-01-18T09:05:54.817Z,24.87
2023-01-18T09:08:59.387Z,26.57
2023-01-18T09:12:02.008Z,28.33
2023-01-18T09:15:05.191Z,21.67
2023-01-18T09:18:08.227Z,21.73
2023-01-18T09:21:13.230Z,23.47
2023-01-18T09:24:17.190Z,22.70
2023-01-18T09:27:19.842Z,26.77
2023-01-18T09:30:22.610Z,23.13
2023-01-18T09:33:36.753Z,27.67
2023-01-18T09:36:39.937Z,21.73
2023-01-18T09:39:51.991Z,25.57
2023-01-18T09:42:55.094Z,23.30
2023-01-18T09:45:58.022Z,21.23
2023-01-18T09:49:04.158Z,25.63
2023-01-18T09:52:21.043Z,22.80
2023-01-18T09:55:33.155Z,23.13
2023-01-18T09:58:48.555Z,21.87
2023-01-18T10:01:55.000Z,28.23
2023-01-18T10:05:05.434Z,23.07
2023-01-18T10:08:14.789Z,22.30
2023-01-18T10:11:27.055Z,21.73
2023-01-18T10:14:43.197Z,23.90
2023-01-18T10:17:46.626Z,21.93
2023-01-18T10:20:55.275Z,18.27
2023-01-18T10:24:11.410Z,24.87
2023-01-18T10:27:48.472Z,22.37
2023-01-18T10:31:03.792Z,24.47
2023-01-18T10:34:16.017Z,22.90
2023-01-18T10:37:29.240Z,24.80
2023-01-18T10:40:31.984Z,23.30
2023-01-18T10:43:36.107Z,21.50
2023-01-18T10:46:38.805Z,23.17
2023-01-18T10:49:43.710Z,24.80
2023-01-18T10:52:46.672Z,23.63
2023-01-18T10:55:55.714Z,21.33
2023-01-18T10:59:01.465Z,19.20
2023-01-18T11:02:05.161Z,22.97
2023-01-18T11:05:21.729Z,22.83
2023-01-18T11:08:26.323Z,21.87
2023-01-18T11:11:45.159Z,20.93
2023-01-18T11:14:49.165Z,25.97
2023-01-18T11:18:09.295Z,23.30
2023-01-18T11:21:13.004Z,18.03
2023-01-18T11:24:18.219Z,21.90
2023-01-18T11:27:25.928Z,24.10
2023-01-18T11:30:30.054Z,23.17
2023-01-18T11:33:33.311Z,18.47
2023-01-18T11:36:38.854Z,22.83
2023-01-18T11:39:44.743Z,26.57
2023-01-18T11:42:50.170Z,17.50
2023-01-18T11:45:59.428Z,21.10
2023-01-18T11:49:08.482Z,18.90
2023-01-18T11:52:18.483Z,26.50
2023-01-18T11:55:31.381Z,21.63
2023-01-18T11:58:36.460Z,20.93
2023-01-18T12:01:59.895Z,19.50
2023-01-18T12:05:30.523Z,19.73
2023-01-18T12:08:47.531Z,21.00
2023-01-18T12:12:17.669Z,21.27
2023-01-18T12:15:41.800Z,22.70
2023-01-18T12:19:25.411Z,23.97
2023-01-18T12:22:55.454Z,25.70
2023-01-18T12:26:17.154Z,20.90
2023-01-18T12:29:50.765Z,19.97
2023-01-18T12:33:06.419Z,18.00
2023-01-18T12:36:44.531Z,19.17
2023-01-18T12:40:00.406Z,19.10
2023-01-18T12:43:18.493Z,18.67
2023-01-18T12:46:29.121Z,19.37
2023-01-18T12:49:35.774Z,19.87
2023-01-18T12:52:47.542Z,18.70
2023-01-18T12:55:54.407Z,23.10
2023-01-18T12:58:59.541Z,18.33
2023-01-18T13:02:13.782Z,19.40
2023-01-18T13:05:21.591Z,15.40
2023-01-18T13:08:39.019Z,17.60
2023-01-18T13:11:44.264Z,15.03
2023-01-18T13:14:53.045Z,19.17
2023-01-18T13:18:02.660Z,18.73
2023-01-18T13:21:16.624Z,18.07
2023-01-18T13:24:30.662Z,17.60
2023-01-18T13:27:34.326Z,20.60
2023-01-18T13:30:51.663Z,18.80
2023-01-18T13:33:58.009Z,18.93
2023-01-18T13:37:13.921Z,20.43
2023-01-18T13:40:36.269Z,16.77
2023-01-18T13:44:04.531Z,23.67
2023-01-18T13:47:42.789Z,16.27
2023-01-18T13:50:47.237Z,16.63
2023-01-18T13:53:51.086Z,17.57
2023-01-18T13:57:17.498Z,18.30
2023-01-18T14:00:24.923Z,17.53
2023-01-18T14:03:30.683Z,15.60
2023-01-18T14:06:36.547Z,16.50
2023-01-18T14:09:42.790Z,14.30
2023-01-18T14:12:51.446Z,18.23
2023-01-18T14:15:55.276Z,13.67
2023-01-18T14:19:01.714Z,14.83
2023-01-18T14:22:23.564Z,17.67
2023-01-18T14:25:43.154Z,13.50
2023-01-18T14:28:50.251Z,14.47
2023-01-18T14:31:55.888Z,16.03
2023-01-18T14:34:59.982Z,19.73
2023-01-18T14:38:17.465Z,16.37
2023-01-18T14:41:20.733Z,10.73
2023-01-18T14:44:27.058Z,11.97
2023-01-18T14:47:33.222Z,15.93
2023-01-18T14:50:40.738Z,12.63
2023-01-18T14:53:47.276Z,14.93
2023-01-18T14:56:50.045Z,16.73
2023-01-18T14:59:55.871Z,14.10
2023-01-18T15:03:01.429Z,15.30
2023-01-18T15:06:13.696Z,14.47
2023-01-18T15:09:19.340Z,14.70
2023-01-18T15:12:29.128Z,14.63
2023-01-18T15:15:38.741Z,21.77
2023-01-18T15:18:42.630Z,13.13
2023-01-18T15:21:45.950Z,18.37
2023-01-18T15:24:48.731Z,19.60
2023-01-18T15:27:52.810Z,14.33
2023-01-18T15:30:57.507Z,18.47
2023-01-18T15:34:00.272Z,20.30
2023-01-18T15:37:05.379Z,23.07
2023-01-18T15:40:25.101Z,15.33
2023-01-18T15:43:32.510Z,18.30
2023-01-18T15:46:39.509Z,14.13
2023-01-18T15:49:44.944Z,18.83
2023-01-18T15:52:53.874Z,16.17
2023-01-18T15:55:59.516Z,21.67
2023-01-18T15:59:09.796Z,14.97
2023-01-18T16:02:18.894Z,16.63
2023-01-18T16:05:24.075Z,14.23
2023-01-18T16:08:27.582Z,19.10
2023-01-18T16:11:32.211Z,20.20
2023-01-18T16:14:37.091Z,16.23
2023-01-18T16:17:44.821Z,17.67
2023-01-18T16:20:47.565Z,17.90
2023-01-18T16:23:52.684Z,15.97
2023-01-18T16:26:57.612Z,15.53
2023-01-18T16:30:03.255Z,18.00
2023-01-18T16:33:13.139Z,21.33
2023-01-18T16:36:18.847Z,14.33
2023-01-18T16:39:23.921Z,16.03
2023-01-18T16:42:37.102Z,16.03
2023-01-18T16:45:40.701Z,16.40
2023-01-18T16:48:44.667Z,18.90
2023-01-18T16:51:47.442Z,20.33
2023-01-18T16:54:50.039Z,19.83
2023-01-18T16:57:52.624Z,19.17
2023-01-18T17:01:00.814Z,18.47
2023-01-18T17:04:06.439Z,24.87
2023-01-18T17:07:10.609Z,17.90
2023-01-18T17:10:22.052Z,22.33
2023-01-18T17:13:24.922Z,15.57
2023-01-18T17:16:27.776Z,18.83
2023-01-18T17:19:31.806Z,18.17
2023-01-18T17:22:34.367Z,24.23
2023-01-18T17:25:37.007Z,25.50
2023-01-18T17:28:39.604Z,20.90
2023-01-18T17:31:51.770Z,25.47
2023-01-18T17:34:56.922Z,25.07
2023-01-18T17:38:05.729Z,19.57
2023-01-18T17:41:26.696Z,20.87
2023-01-18T17:44:36.849Z,15.50
2023-01-18T17:47:39.928Z,15.73
2023-01-18T17:50:43.895Z,18.70
2023-01-18T17:53:46.463Z,20.17
2023-01-18T17:56:49.082Z,22.70
2023-01-18T17:59:55.474Z,23.23
2023-01-18T18:02:59.842Z,17.57
2023-01-18T18:06:05.655Z,21.07
2023-01-18T18:09:08.217Z,22.10
2023-01-18T18:12:11.866Z,15.23
2023-01-18T18:15:14.471Z,22.67
2023-01-18T18:18:24.404Z,23.00
2023-01-18T18:21:29.070Z,22.00
2023-01-18T18:24:31.760Z,23.73
2023-01-18T18:27:44.905Z,23.53
2023-01-18T18:30:49.020Z,20.23
2023-01-18T18:33:51.684Z,20.20
2023-01-18T18:36:55.607Z,18.00
2023-01-18T18:39:58.199Z,21.77
2023-01-18T18:43:02.872Z,20.67
2023-01-18T18:46:05.918Z,20.77
2023-01-18T18:49:08.716Z,25.80
2023-01-18T18:52:12.668Z,22.77
2023-01-18T18:55:15.412Z,20.30
2023-01-18T18:58:17.992Z,24.77
2023-01-18T19:01:22.618Z,16.77
2023-01-18T19:04:26.280Z,22.23
2023-01-18T19:07:30.279Z,25.37
2023-01-18T19:10:32.920Z,24.00
2023-01-18T19:13:35.501Z,18.17
2023-01-18T19:16:38.239Z,26.93
2023-01-18T19:19:40.918Z,21.27
2023-01-18T19:22:44.873Z,20.57
2023-01-18T19:25:49.177Z,24.37
2023-01-18T19:28:51.876Z,24.57
2023-01-18T19:31:54.587Z,24.40
2023-01-18T19:34:57.173Z,20.77
2023-01-18T19:38:01.105Z,18.37
2023-01-18T19:41:03.716Z,24.20
2023-01-18T19:44:06.617Z,21.27
2023-01-18T19:47:09.231Z,19.43
2023-01-18T19:50:12.183Z,17.80
2023-01-18T19:53:16.172Z,25.43
2023-01-18T19:56:18.725Z,17.90
2023-01-18T19:59:21.326Z,19.43
2023-01-18T20:02:24.451Z,19.57
2023-01-18T20:05:27.249Z,16.73
2023-01-18T20:08:31.275Z,21.57
2023-01-18T20:11:33.865Z,19.23
2023-01-18T20:14:41.201Z,17.90
2023-01-18T20:17:44.333Z,21.23
2023-01-18T20:20:47.031Z,17.93
2023-01-18T20:23:50.992Z,16.87
2023-01-18T20:26:55.124Z,21.13
2023-01-18T20:30:00.312Z,15.53
2023-01-18T20:33:03.465Z,20.83
2023-01-18T20:36:06.986Z,14.70
2023-01-18T20:39:11.439Z,18.23
2023-01-18T20:42:15.370Z,16.53
2023-01-18T20:45:18.001Z,20.73
2023-01-18T20:48:20.552Z,15.47
2023-01-18T20:51:23.149Z,18.87
2023-01-18T20:54:27.328Z,21.80
2023-01-18T20:57:31.610Z,23.23
2023-01-18T21:00:34.272Z,18.67
2023-01-18T21:03:36.910Z,21.07
2023-01-18T21:06:39.497Z,20.70
2023-01-18T21:09:43.441Z,18.57
2023-01-18T21:12:48.122Z,16.20
2023-01-18T21:15:55.671Z,14.80
2023-01-18T21:18:59.397Z,16.53
2023-01-18T21:22:02.062Z,22.70
2023-01-18T21:25:06.638Z,16.67
2023-01-18T21:28:09.217Z,18.03
2023-01-18T21:31:12.326Z,17.17
2023-01-18T21:34:14.926Z,15.70
2023-01-18T21:37:17.515Z,16.20
2023-01-18T21:40:21.461Z,19.83
2023-01-18T21:43:41.299Z,17.30
2023-01-18T21:46:45.782Z,15.67
2023-01-18T21:50:21.229Z,17.07
2023-01-18T21:53:41.250Z,15.20
2023-01-18T21:56:45.957Z,18.00
2023-01-18T21:59:48.602Z,19.93
2023-01-18T22:02:51.235Z,16.57
2023-01-18T22:05:53.827Z,15.73
2023-01-18T22:08:56.543Z,18.63
2023-01-18T22:12:01.031Z,17.27
2023-01-18T22:15:04.222Z,18.50
2023-01-18T22:18:07.029Z,16.53
2023-01-18T22:21:09.647Z,19.83
2023-01-18T22:24:13.394Z,21.93
2023-01-18T22:27:17.405Z,16.83
2023-01-18T22:30:20.162Z,18.97
2023-01-18T22:33:22.759Z,19.70
2023-01-18T22:36:25.670Z,23.40
2023-01-18T22:39:28.257Z,15.03
2023-01-18T22:42:32.479Z,19.67
2023-01-18T22:45:35.096Z,19.13
2023-01-18T22:48:38.533Z,15.30
2023-01-18T22:51:41.136Z,15.77
2023-01-18T22:54:43.821Z,17.40
2023-01-18T22:57:47.743Z,22.33
2023-01-18T23:00:50.643Z,13.47
2023-01-18T23:03:54.385Z,20.37
2023-01-18T23:07:00.621Z,21.87
2023-01-18T23:10:03.215Z,15.17
2023-01-18T23:13:07.151Z,18.27
2023-01-18T23:16:30.887Z,19.30
2023-01-18T23:19:34.424Z,22.63
2023-01-18T23:22:37.106Z,18.73
2023-01-18T23:25:39.698Z,20.33
2023-01-18T23:28:43.717Z,17.33
2023-01-18T23:31:46.699Z,19.87
2023-01-18T23:34:49.312Z,20.00
2023-01-18T23:37:51.912Z,16.67
2023-01-18T23:41:13.790Z,19.80
2023-01-18T23:44:35.460Z,22.03
2023-01-18T23:47:55.806Z,17.77
2023-01-18T23:51:16.125Z,18.37
2023-01-18T23:54:18.880Z,19.00
2023-01-18T23:57:21.457Z,18.10
